Time;durP1;ratioP1;P1;durP2;ratioP2;P2;SDS_P1;SDS_P2;PMS_P1;PMS_P2;Temp;Humidity;BMP_temperature;BMP_pressure;BME280_temperature;BME280_humidity;BME280_pressure;Samples;Min_cycle;Max_cycle;Signal;HPM_P1;HPM_P2
2023/08/20 00:01:25;;;;;;;14.70;2.70;;;16.60;99.90;;;;;;5030820;28;20200;-71
2023/08/20 00:03:52;;;;;;;13.18;2.38;;;16.60;99.90;;;;;;5030697;28;20162;-71
2023/08/20 00:06:18;;;;;;;12.77;2.38;;;16.60;99.90;;;;;;5030815;28;20166;-71
2023/08/20 00:08:44;;;;;;;13.13;2.25;;;16.60;99.90;;;;;;5030570;28;20260;-71
2023/08/20 00:11:11;;;;;;;16.92;2.60;;;16.50;99.90;;;;;;5029402;28;20269;-71
2023/08/20 00:13:37;;;;;;;13.82;2.38;;;16.50;99.90;;;;;;5033876;28;20171;-70
2023/08/20 00:16:03;;;;;;;12.05;2.25;;;16.50;99.90;;;;;;5033068;28;20562;-71
2023/08/20 00:18:29;;;;;;;17.02;3.08;;;16.40;99.90;;;;;;5048790;28;20250;-70
2023/08/20 00:20:55;;;;;;;11.73;2.42;;;16.40;99.90;;;;;;5054251;28;20248;-71
2023/08/20 00:23:21;;;;;;;10.95;2.35;;;16.40;99.90;;;;;;5054033;28;20252;-70
2023/08/20 00:25:47;;;;;;;12.63;2.47;;;16.50;99.90;;;;;;5053860;28;20216;-71
2023/08/20 00:28:13;;;;;;;20.42;2.67;;;16.50;99.90;;;;;;5054115;28;20169;-71
2023/08/20 00:30:39;;;;;;;20.38;2.75;;;16.50;99.90;;;;;;5053951;28;20173;-71
2023/08/20 00:33:05;;;;;;;16.98;3.00;;;16.50;99.90;;;;;;5052754;28;20177;-70
2023/08/20 00:35:31;;;;;;;9.57;2.22;;;16.40;99.90;;;;;;5053734;28;20181;-71
2023/08/20 00:37:56;;;;;;;15.20;2.83;;;16.40;99.90;;;;;;5052574;28;20212;-71
2023/08/20 00:40:22;;;;;;;12.38;2.53;;;16.40;99.90;;;;;;5054010;28;20629;-71
2023/08/20 00:42:49;;;;;;;11.63;2.15;;;16.30;99.90;;;;;;5053458;28;20184;-71
2023/08/20 00:45:16;;;;;;;12.23;2.50;;;16.30;99.90;;;;;;5053851;28;20180;-71
2023/08/20 00:47:42;;;;;;;13.35;2.40;;;16.30;99.90;;;;;;5053692;28;20165;-72
2023/08/20 00:50:08;;;;;;;11.52;2.40;;;16.20;99.90;;;;;;5053769;28;20177;-71
2023/08/20 00:52:35;;;;;;;14.43;2.30;;;16.20;99.90;;;;;;5053659;28;20180;-72
2023/08/20 00:55:10;;;;;;;16.33;2.70;;;16.20;99.90;;;;;;5047421;28;20216;-71
2023/08/20 00:57:37;;;;;;;11.43;2.45;;;16.10;99.90;;;;;;5047046;28;20415;-70
2023/08/20 01:00:07;;;;;;;13.05;2.10;;;16.10;99.90;;;;;;5038787;28;20174;-70
2023/08/20 01:02:34;;;;;;;9.30;2.20;;;16.10;99.90;;;;;;5035346;28;20717;-71
2023/08/20 01:05:01;;;;;;;13.80;2.75;;;16.00;99.90;;;;;;5053436;28;20200;-70
2023/08/20 01:07:44;;;;;;;15.20;2.35;;;16.10;99.90;;;;;;5053209;28;20157;-70
2023/08/20 01:10:39;;;;;;;14.80;2.53;;;16.00;99.90;;;;;;5053348;28;20173;-72
2023/08/20 01:13:07;;;;;;;14.02;2.45;;;15.90;99.90;;;;;;5052540;28;20632;-70
2023/08/20 01:15:32;;;;;;;12.70;2.42;;;15.90;99.90;;;;;;5044087;28;20178;-71
2023/08/20 01:17:58;;;;;;;13.43;2.30;;;16.00;99.90;;;;;;5033136;28;20260;-71
2023/08/20 01:20:30;;;;;;;15.65;2.20;;;16.00;99.90;;;;;;5033259;28;20699;-71
2023/08/20 01:23:09;;;;;;;15.25;2.33;;;16.10;99.90;;;;;;5031814;28;20552;-71
2023/08/20 01:26:20;;;;;;;12.25;2.53;;;16.30;99.90;;;;;;5032800;28;20174;-71
2023/08/20 01:28:46;;;;;;;10.13;2.60;;;16.10;99.90;;;;;;5017866;28;20189;-72
2023/08/20 01:31:12;;;;;;;11.55;2.33;;;16.10;99.90;;;;;;5033173;28;20174;-71
2023/08/20 01:33:38;;;;;;;12.98;2.10;;;16.20;99.90;;;;;;5033026;28;20245;-72
2023/08/20 01:36:09;;;;;;;12.88;2.53;;;16.40;99.90;;;;;;5031378;28;20174;-71
2023/08/20 01:38:35;;;;;;;12.27;1.88;;;16.20;99.90;;;;;;5033139;28;20344;-72
2023/08/20 01:41:01;;;;;;;13.35;2.33;;;16.20;99.90;;;;;;5032937;28;20188;-71
2023/08/20 01:43:27;;;;;;;11.38;1.98;;;16.10;99.90;;;;;;5032765;28;20261;-71
2023/08/20 01:45:53;;;;;;;14.20;2.28;;;16.00;99.90;;;;;;5032635;28;20185;-71
2023/08/20 01:48:18;;;;;;;13.50;2.30;;;16.00;99.90;;;;;;5032624;28;20329;-71
2023/08/20 01:50:45;;;;;;;17.10;2.45;;;15.90;99.90;;;;;;5032722;28;20170;-71
2023/08/20 01:53:11;;;;;;;10.15;1.80;;;15.90;99.90;;;;;;5050433;28;20184;-71
2023/08/20 01:55:37;;;;;;;9.88;1.85;;;15.90;99.90;;;;;;5052473;28;20161;-70
2023/08/20 01:58:03;;;;;;;8.50;1.75;;;15.80;99.90;;;;;;5050954;28;20219;-70
2023/08/20 02:00:30;;;;;;;12.10;2.15;;;15.80;99.90;;;;;;5052193;28;20173;-72
2023/08/20 02:02:56;;;;;;;12.77;2.00;;;15.80;99.90;;;;;;5041992;28;20648;-72
2023/08/20 02:05:21;;;;;;;10.02;2.20;;;15.90;99.90;;;;;;5048492;28;20173;-73
2023/08/20 02:07:47;;;;;;;13.02;2.35;;;15.80;99.90;;;;;;5052145;28;20185;-70
2023/08/20 02:10:13;;;;;;;14.52;2.72;;;;;;;;;;5044232;28;20169;-71
2023/08/20 02:12:40;;;;;;;7.72;1.80;;;15.80;99.90;;;;;;5043162;28;20181;-71
2023/08/20 02:15:07;;;;;;;13.35;2.30;;;15.60;99.90;;;;;;5051841;28;20173;-71
2023/08/20 02:17:32;;;;;;;14.57;2.65;;;15.50;99.90;;;;;;5038839;28;20313;-71
2023/08/20 02:19:58;;;;;;;11.38;2.05;;;15.60;99.90;;;;;;5052075;28;20197;-71
2023/08/20 02:22:24;;;;;;;9.25;2.25;;;15.60;99.90;;;;;;5042213;28;20224;-71
2023/08/20 02:24:49;;;;;;;18.65;2.58;;;15.60;99.90;;;;;;5030707;28;20216;-71
2023/08/20 02:27:15;;;;;;;12.63;2.60;;;15.70;99.90;;;;;;5046229;28;20225;-71
2023/08/20 02:29:41;;;;;;;15.50;2.20;;;15.40;99.90;;;;;;5051871;28;20165;-71
2023/08/20 02:32:06;;;;;;;12.32;2.65;;;15.50;99.90;;;;;;5051993;28;20188;-71
2023/08/20 02:34:32;;;;;;;10.90;2.30;;;15.60;99.90;;;;;;5051060;28;20727;-71
2023/08/20 02:36:57;;;;;;;15.73;2.42;;;15.50;99.90;;;;;;5051600;28;20201;-71
2023/08/20 02:39:24;;;;;;;17.20;2.47;;;15.50;99.90;;;;;;5051622;28;20180;-71
2023/08/20 02:41:50;;;;;;;9.60;2.45;;;15.50;99.90;;;;;;5051589;28;20470;-71
2023/08/20 02:44:15;;;;;;;9.35;2.33;;;15.50;99.90;;;;;;5051642;28;20195;-70
2023/08/20 02:46:41;;;;;;;7.63;1.85;;;15.50;99.90;;;;;;5051223;28;20181;-71
2023/08/20 02:49:07;;;;;;;17.02;2.47;;;;;;;;;;5051434;28;20535;-71
2023/08/20 02:51:33;;;;;;;10.93;2.30;;;15.50;99.90;;;;;;5050193;28;20204;-71
2023/08/20 02:53:58;;;;;;;13.00;2.28;;;15.30;99.90;;;;;;5051438;28;20641;-71
2023/08/20 02:56:24;;;;;;;12.85;2.38;;;15.20;99.90;;;;;;5051110;28;20196;-72
2023/08/20 02:58:49;;;;;;;11.45;2.30;;;15.00;99.90;;;;;;5031889;28;20205;-72
2023/08/20 03:01:23;;;;;;;10.10;2.40;;;15.20;99.90;;;;;;5031666;28;20276;-71
2023/08/20 03:03:49;;;;;;;12.45;2.13;;;15.20;99.90;;;;;;5047802;28;20184;-71
2023/08/20 03:06:14;;;;;;;13.07;2.28;;;15.20;99.90;;;;;;5031280;28;20178;-71
2023/08/20 03:08:40;;;;;;;16.73;2.63;;;15.10;99.90;;;;;;5031336;28;20185;-71
2023/08/20 03:11:06;;;;;;;14.20;2.30;;;15.30;99.90;;;;;;5044739;28;20369;-71
2023/08/20 03:13:31;;;;;;;9.38;1.73;;;15.30;99.90;;;;;;5050622;28;20587;-70
2023/08/20 03:15:57;;;;;;;10.90;2.17;;;15.10;99.90;;;;;;5050484;28;20181;-70
2023/08/20 03:18:22;;;;;;;14.93;2.33;;;15.00;99.90;;;;;;5050976;28;20172;-70
2023/08/20 03:20:48;;;;;;;10.38;2.17;;;15.10;99.90;;;;;;5039947;28;20580;-70
2023/08/20 03:23:13;;;;;;;13.60;2.47;;;15.10;99.90;;;;;;5031309;28;20182;-70
2023/08/20 03:25:39;;;;;;;13.57;2.70;;;;;;;;;;5031194;28;20182;-70
2023/08/20 03:28:05;;;;;;;10.55;1.90;;;15.20;99.90;;;;;;5030839;28;20581;-72
2023/08/20 03:30:31;;;;;;;13.85;2.60;;;15.30;99.90;;;;;;5039147;28;20181;-72
2023/08/20 03:32:57;;;;;;;13.48;2.42;;;15.10;99.90;;;;;;5050624;28;20177;-72
2023/08/20 03:35:22;;;;;;;15.73;2.42;;;15.00;99.90;;;;;;5050646;28;20169;-70
2023/08/20 03:37:48;;;;;;;11.85;2.38;;;14.90;99.90;;;;;;5050579;28;20213;-71
2023/08/20 03:40:14;;;;;;;12.50;2.65;;;15.10;99.90;;;;;;5048728;28;20256;-71
2023/08/20 03:42:40;;;;;;;11.50;2.45;;;15.00;99.90;;;;;;5040479;28;20177;-71
2023/08/20 03:45:06;;;;;;;11.32;2.03;;;;;;;;;;5047054;28;20174;-71
2023/08/20 03:47:32;;;;;;;11.60;2.53;;;14.90;99.90;;;;;;5032319;28;20659;-71
2023/08/20 03:49:57;;;;;;;13.32;2.53;;;15.00;99.90;;;;;;5038943;28;20173;-70
2023/08/20 03:52:23;;;;;;;12.35;2.45;;;;;;;;;;5054589;28;20578;-70
2023/08/20 03:54:50;;;;;;;8.38;2.25;;;14.80;99.90;;;;;;5043475;28;20170;-70
2023/08/20 03:57:16;;;;;;;19.80;2.65;;;14.70;99.90;;;;;;5034637;28;20209;-70
2023/08/20 03:59:41;;;;;;;18.58;2.60;;;14.90;99.90;;;;;;5052525;28;20601;-71
2023/08/20 04:02:07;;;;;;;10.52;2.50;;;14.70;99.90;;;;;;5034722;28;20174;-70
2023/08/20 04:04:32;;;;;;;11.73;2.58;;;14.70;99.90;;;;;;5043383;28;20801;-70
2023/08/20 04:06:58;;;;;;;10.05;2.15;;;14.80;99.90;;;;;;5037926;28;20192;-70
2023/08/20 04:09:25;;;;;;;9.65;2.30;;;14.70;99.90;;;;;;5037704;28;20174;-71
2023/08/20 04:11:51;;;;;;;10.60;2.25;;;14.70;99.90;;;;;;5054387;28;20210;-71
2023/08/20 04:14:17;;;;;;;12.48;3.03;;;;;;;;;;5053195;28;20189;-71
2023/08/20 04:16:43;;;;;;;11.80;2.45;;;;;;;;;;5053970;28;20201;-71
2023/08/20 04:19:08;;;;;;;12.43;2.60;;;14.80;99.90;;;;;;5054340;28;20866;-71
2023/08/20 04:21:34;;;;;;;14.43;2.38;;;14.80;99.90;;;;;;5051158;28;20170;-71
2023/08/20 04:23:59;;;;;;;10.00;1.95;;;14.80;99.90;;;;;;5034168;28;20233;-71
2023/08/20 04:26:25;;;;;;;16.73;2.90;;;14.70;99.90;;;;;;5034281;28;20218;-71
2023/08/20 04:28:50;;;;;;;13.60;2.88;;;14.80;99.90;;;;;;5034063;28;20224;-71
2023/08/20 04:31:16;;;;;;;15.73;2.53;;;14.70;99.90;;;;;;5034066;28;20221;-72
2023/08/20 04:33:42;;;;;;;11.52;2.55;;;;;;;;;;5034271;28;20218;-72
2023/08/20 04:36:07;;;;;;;11.18;2.70;;;14.80;99.90;;;;;;5032639;28;20625;-71
2023/08/20 04:38:33;;;;;;;12.63;2.80;;;15.00;99.90;;;;;;5034096;28;20201;-71
2023/08/20 04:40:59;;;;;;;11.88;2.90;;;15.00;99.90;;;;;;5034119;28;20182;-71
2023/08/20 04:43:25;;;;;;;8.75;2.03;;;;;;;;;;5034079;28;20181;-71
2023/08/20 04:45:50;;;;;;;10.48;2.45;;;15.00;99.90;;;;;;5033570;28;20175;-72
2023/08/20 04:48:16;;;;;;;13.57;2.42;;;14.90;99.90;;;;;;5033930;28;20510;-72
2023/08/20 04:50:41;;;;;;;7.60;2.08;;;14.80;99.90;;;;;;5033931;28;20177;-71
2023/08/20 04:53:07;;;;;;;12.77;2.58;;;14.70;99.90;;;;;;5033757;28;20201;-71
2023/08/20 04:55:32;;;;;;;12.88;2.50;;;14.60;99.90;;;;;;5033814;28;20561;-71
2023/08/20 04:57:58;;;;;;;10.88;2.15;;;14.60;99.90;;;;;;5034910;28;20205;-71
2023/08/20 05:00:24;;;;;;;10.20;2.22;;;14.60;99.90;;;;;;5053631;28;20173;-71
2023/08/20 05:02:50;;;;;;;13.30;2.65;;;14.50;99.90;;;;;;5052318;28;20516;-72
2023/08/20 05:05:15;;;;;;;15.52;3.17;;;14.70;99.90;;;;;;5052955;28;20191;-73
2023/08/20 05:07:41;;;;;;;23.02;2.97;;;14.50;99.90;;;;;;5039429;28;20182;-71
2023/08/20 05:10:08;;;;;;;17.63;2.83;;;14.60;99.90;;;;;;5039198;28;20169;-71
2023/08/20 05:12:34;;;;;;;11.77;2.38;;;14.60;99.90;;;;;;5053513;28;20227;-71
2023/08/20 05:15:00;;;;;;;13.75;2.58;;;;;;;;;;5052880;28;20169;-71
2023/08/20 05:17:25;;;;;;;15.13;2.70;;;14.70;99.90;;;;;;5052949;28;20212;-70
2023/08/20 05:19:51;;;;;;;7.55;2.50;;;14.70;99.90;;;;;;5051549;28;20571;-71
2023/08/20 05:22:17;;;;;;;10.45;2.67;;;;;;;;;;5040929;28;20178;-70
2023/08/20 05:24:43;;;;;;;10.35;2.05;;;14.70;99.90;;;;;;5037957;28;20687;-70
2023/08/20 05:27:14;;;;;;;9.10;2.35;;;14.40;99.90;;;;;;5032946;28;20232;-72
2023/08/20 05:29:40;;;;;;;11.75;2.10;;;14.40;99.90;;;;;;5047377;28;20201;-71
2023/08/20 05:32:06;;;;;;;8.85;2.00;;;14.60;99.90;;;;;;5052345;28;20725;-70
2023/08/20 05:34:32;;;;;;;15.63;2.78;;;14.80;99.90;;;;;;5045372;28;20237;-70
2023/08/20 05:36:58;;;;;;;10.50;2.75;;;14.60;99.90;;;;;;5046175;28;20219;-70
2023/08/20 05:39:25;;;;;;;8.45;2.20;;;14.70;99.90;;;;;;5052915;28;20169;-70
2023/08/20 05:41:54;;;;;;;8.27;2.80;;;14.50;99.90;;;;;;5032798;28;20629;-71
2023/08/20 05:44:20;;;;;;;8.93;2.20;;;14.60;99.90;;;;;;5032811;28;20263;-69
2023/08/20 05:46:45;;;;;;;12.90;2.40;;;14.70;99.90;;;;;;5032505;28;20210;-72
2023/08/20 05:49:12;;;;;;;10.20;2.13;;;14.60;99.90;;;;;;5032750;28;20260;-70
2023/08/20 05:51:38;;;;;;;11.02;2.83;;;14.70;99.90;;;;;;5033277;28;20169;-70
2023/08/20 05:54:03;;;;;;;11.13;2.67;;;14.90;99.90;;;;;;5051251;28;20264;-70
2023/08/20 05:56:29;;;;;;;7.82;2.38;;;14.90;99.90;;;;;;5052448;28;20551;-71
2023/08/20 05:58:55;;;;;;;13.30;2.58;;;14.80;99.90;;;;;;5052366;28;20227;-71
2023/08/20 06:01:21;;;;;;;18.20;2.70;;;15.00;99.90;;;;;;5052444;28;20162;-71
2023/08/20 06:03:47;;;;;;;7.65;2.10;;;15.10;99.90;;;;;;5052446;28;20196;-71
2023/08/20 06:06:12;;;;;;;12.90;2.58;;;15.20;99.90;;;;;;5052405;28;20169;-69
2023/08/20 06:08:38;;;;;;;10.77;2.38;;;15.30;99.90;;;;;;5048118;28;20170;-70
2023/08/20 06:11:03;;;;;;;10.65;2.47;;;15.40;99.90;;;;;;5030280;28;20170;-74
2023/08/20 06:13:29;;;;;;;13.23;2.90;;;15.60;99.90;;;;;;5044585;28;20676;-73
2023/08/20 06:15:55;;;;;;;12.50;2.58;;;15.50;99.90;;;;;;5041811;28;20223;-74
2023/08/20 06:18:20;;;;;;;11.50;2.63;;;15.70;99.90;;;;;;5057427;28;20701;-74
2023/08/20 06:20:46;;;;;;;12.07;2.55;;;15.80;99.90;;;;;;5049961;28;20184;-72
2023/08/20 06:23:13;;;;;;;13.38;2.00;;;;;;;;;;5045106;28;20184;-72
2023/08/20 06:25:38;;;;;;;16.13;2.50;;;16.10;99.90;;;;;;5030722;28;20174;-71
2023/08/20 06:28:04;;;;;;;10.07;2.63;;;16.20;99.90;;;;;;5031967;28;20676;-72
2023/08/20 06:30:30;;;;;;;10.98;2.40;;;16.30;99.90;;;;;;5030653;28;20543;-72
2023/08/20 06:32:55;;;;;;;9.52;2.03;;;16.40;99.90;;;;;;5035831;28;20691;-72
2023/08/20 06:35:21;;;;;;;10.63;1.88;;;16.50;99.90;;;;;;5043354;28;20538;-72
2023/08/20 06:37:47;;;;;;;11.18;2.20;;;16.50;99.90;;;;;;5032032;28;20213;-71
2023/08/20 06:40:13;;;;;;;11.32;2.22;;;16.60;99.90;;;;;;5051593;28;20193;-71
2023/08/20 06:42:39;;;;;;;7.60;1.90;;;16.60;99.90;;;;;;5049623;28;20180;-71
2023/08/20 06:45:05;;;;;;;9.80;2.30;;;16.70;99.90;;;;;;5047236;28;20667;-71
2023/08/20 06:47:31;;;;;;;14.18;2.55;;;16.80;99.90;;;;;;5034776;28;20640;-72
2023/08/20 06:49:56;;;;;;;10.35;2.42;;;16.60;99.90;;;;;;5034386;28;20173;-71
2023/08/20 06:52:22;;;;;;;7.95;2.67;;;17.10;99.90;;;;;;5039073;28;20178;-70
2023/08/20 06:54:48;;;;;;;7.32;1.98;;;16.90;99.90;;;;;;5031304;28;20253;-70
2023/08/20 06:57:13;;;;;;;9.30;1.75;;;17.10;99.90;;;;;;5031296;28;20212;-71
2023/08/20 06:59:39;;;;;;;5.97;1.80;;;17.50;99.90;;;;;;5031342;28;20567;-72
2023/08/20 07:02:05;;;;;;;10.00;1.92;;;17.30;99.90;;;;;;5033863;28;20178;-71
2023/08/20 07:04:31;;;;;;;10.18;1.83;;;17.20;99.90;;;;;;5051148;28;20244;-72
2023/08/20 07:06:56;;;;;;;9.52;2.03;;;17.30;99.90;;;;;;5051304;28;20268;-71
2023/08/20 07:09:22;;;;;;;6.10;1.98;;;17.30;99.90;;;;;;5050031;28;20291;-72
2023/08/20 07:11:47;;;;;;;9.73;1.65;;;17.30;99.90;;;;;;5051162;28;20173;-71
2023/08/20 07:14:13;;;;;;;8.93;1.77;;;17.30;99.90;;;;;;5051410;28;20173;-72
2023/08/20 07:16:39;;;;;;;8.90;1.77;;;17.30;99.90;;;;;;5050661;28;20735;-72
2023/08/20 07:19:04;;;;;;;4.85;1.60;;;17.30;99.90;;;;;;5051092;28;20177;-72
2023/08/20 07:21:30;;;;;;;9.85;2.00;;;17.40;99.90;;;;;;5050908;28;20632;-72
2023/08/20 07:23:55;;;;;;;11.52;2.20;;;17.50;99.90;;;;;;5050921;28;20173;-71
2023/08/20 07:26:22;;;;;;;11.88;1.95;;;17.60;99.90;;;;;;5050849;28;20242;-71
2023/08/20 07:28:57;;;;;;;10.43;2.08;;;17.90;99.90;;;;;;5049572;28;20268;-71
2023/08/20 07:31:27;;;;;;;6.10;1.88;;;17.80;99.90;;;;;;5051409;28;20174;-71
2023/08/20 07:33:54;;;;;;;9.55;2.25;;;17.90;99.90;;;;;;5050973;28;20179;-70
2023/08/20 07:36:23;;;;;;;7.38;1.98;;;17.90;99.90;;;;;;5049455;28;20650;-71
2023/08/20 07:38:50;;;;;;;10.00;1.70;;;18.00;99.90;;;;;;5050689;28;20169;-71
2023/08/20 07:41:16;;;;;;;9.32;1.85;;;18.10;99.90;;;;;;5050816;28;20240;-71
2023/08/20 07:43:41;;;;;;;8.05;1.83;;;18.10;99.90;;;;;;5050773;28;20338;-71
2023/08/20 07:46:08;;;;;;;8.60;1.58;;;18.10;99.90;;;;;;5050340;28;20169;-72
2023/08/20 07:48:35;;;;;;;7.47;1.80;;;18.10;99.90;;;;;;5050804;28;20540;-72
2023/08/20 07:51:01;;;;;;;9.27;1.60;;;18.50;99.90;;;;;;5050651;28;20632;-70
2023/08/20 07:53:27;;;;;;;8.68;1.73;;;18.40;99.90;;;;;;5042063;28;20177;-71
2023/08/20 07:55:53;;;;;;;6.53;1.75;;;;;;;;;;5030468;28;20185;-72
2023/08/20 07:58:18;;;;;;;12.63;2.00;;;18.70;99.90;;;;;;5030592;28;20259;-72
2023/08/20 08:00:44;;;;;;;7.40;2.25;;;18.90;99.90;;;;;;5030870;28;20232;-72
2023/08/20 08:03:09;;;;;;;9.00;1.80;;;18.90;99.90;;;;;;5031818;28;20174;-72
2023/08/20 08:05:36;;;;;;;12.75;2.00;;;19.00;99.90;;;;;;5029298;28;20178;-72
2023/08/20 08:08:02;;;;;;;7.25;1.50;;;19.10;99.90;;;;;;5030502;28;20244;-73
2023/08/20 08:10:28;;;;;;;7.25;1.50;;;19.10;99.90;;;;;;5030821;28;20158;-71
2023/08/20 08:12:53;;;;;;;9.52;1.50;;;19.20;99.90;;;;;;5030393;28;20170;-74
2023/08/20 08:15:19;;;;;;;10.68;1.92;;;;;;;;;;5030590;28;20200;-74
2023/08/20 08:17:45;;;;;;;8.18;1.48;;;19.90;99.90;;;;;;5030510;28;20210;-74
2023/08/20 08:20:11;;;;;;;9.23;1.83;;;20.40;99.90;;;;;;5031634;28;20198;-72
2023/08/20 08:22:37;;;;;;;6.47;1.40;;;20.40;99.90;;;;;;5030383;28;20219;-71
2023/08/20 08:25:02;;;;;;;7.10;1.60;;;20.70;99.90;;;;;;5030556;28;20261;-74
2023/08/20 08:27:28;;;;;;;4.75;1.30;;;21.00;99.90;;;;;;5030788;28;20232;-75
2023/08/20 08:29:54;;;;;;;10.63;2.00;;;;;;;;;;5029411;28;20218;-75
2023/08/20 08:32:20;;;;;;;8.27;1.55;;;;;;;;;;5030533;28;20528;-75
2023/08/20 08:34:45;;;;;;;9.18;1.60;;;21.80;99.90;;;;;;5033746;28;20191;-74
2023/08/20 08:37:11;;;;;;;10.60;1.63;;;21.70;99.90;;;;;;5033565;28;20212;-75
2023/08/20 08:39:37;;;;;;;6.55;1.40;;;23.10;99.90;;;;;;5044923;28;20197;-75
2023/08/20 08:42:04;;;;;;;9.00;1.42;;;23.20;99.90;;;;;;5053888;28;20177;-75
2023/08/20 08:44:34;;;;;;;9.20;2.00;;;23.90;99.90;;;;;;5053923;28;20269;-75
2023/08/20 08:47:04;;;;;;;6.43;1.42;;;24.10;99.90;;;;;;5040983;28;20372;-75
2023/08/20 08:49:33;;;;;;;6.60;1.30;;;23.80;99.90;;;;;;5033717;28;20205;-73
2023/08/20 08:51:59;;;;;;;7.28;1.70;;;23.20;99.90;;;;;;5032569;28;20165;-73
2023/08/20 08:54:26;;;;;;;9.13;1.67;;;21.80;99.90;;;;;;5033759;28;20269;-76
2023/08/20 08:56:51;;;;;;;7.05;1.60;;;21.80;99.90;;;;;;5039199;28;20292;-73
2023/08/20 08:59:17;;;;;;;4.88;1.65;;;21.40;99.90;;;;;;5051525;28;20272;-74
2023/08/20 09:01:43;;;;;;;9.73;1.65;;;20.80;99.90;;;;;;5052106;28;20201;-75
2023/08/20 09:04:09;;;;;;;11.00;1.77;;;20.90;99.90;;;;;;5050275;28;20200;-73
2023/08/20 09:06:49;;;;;;;8.98;2.08;;;20.90;99.90;;;;;;5051388;28;20621;-74
2023/08/20 09:09:17;;;;;;;6.60;1.23;;;20.80;99.90;;;;;;5049992;28;20177;-74
2023/08/20 09:11:43;;;;;;;8.30;1.55;;;;;;;;;;5045956;28;20166;-74
2023/08/20 09:14:24;;;;;;;5.93;1.27;;;20.50;99.90;;;;;;5043000;28;20257;-74
2023/08/20 09:17:01;;;;;;;8.18;1.52;;;20.60;99.90;;;;;;5052944;28;20208;-73
2023/08/20 09:19:35;;;;;;;8.82;1.38;;;20.50;99.90;;;;;;5053115;28;20674;-74
2023/08/20 09:22:00;;;;;;;7.18;1.20;;;20.40;99.90;;;;;;5053216;28;20173;-74
2023/08/20 09:24:33;;;;;;;4.93;1.20;;;20.40;99.90;;;;;;5053145;28;20236;-74
2023/08/20 09:26:59;;;;;;;5.47;1.38;;;20.20;99.90;;;;;;5052810;28;20233;-75
2023/08/20 09:29:25;;;;;;;6.82;1.20;;;20.30;99.90;;;;;;5052943;28;20170;-74
2023/08/20 09:32:00;;;;;;;8.25;1.50;;;20.40;99.90;;;;;;5053014;28;20651;-73
2023/08/20 09:34:26;;;;;;;10.52;1.67;;;20.30;99.90;;;;;;5052891;28;20204;-74
2023/08/20 09:36:51;;;;;;;7.95;1.27;;;20.30;99.90;;;;;;5051341;28;20209;-74
2023/08/20 09:39:17;;;;;;;6.22;1.63;;;20.50;99.90;;;;;;5052924;28;20177;-73
2023/08/20 09:41:45;;;;;;;6.55;1.20;;;20.50;99.90;;;;;;5052737;28;20169;-74
2023/08/20 09:44:12;;;;;;;6.03;1.38;;;21.30;99.90;;;;;;5051992;28;20639;-74
2023/08/20 09:46:38;;;;;;;8.93;1.60;;;21.60;99.90;;;;;;5052173;28;20166;-74
2023/08/20 09:49:07;;;;;;;12.45;1.45;;;22.30;99.90;;;;;;5051168;28;20237;-74
2023/08/20 09:51:35;;;;;;;8.60;1.50;;;22.90;99.90;;;;;;5052615;28;20240;-74
2023/08/20 09:54:11;;;;;;;6.05;1.13;;;23.20;99.90;;;;;;5052253;28;20652;-74
2023/08/20 09:56:39;;;;;;;5.60;1.30;;;23.30;99.90;;;;;;5052221;28;20717;-74
2023/08/20 09:59:05;;;;;;;4.88;1.27;;;22.90;99.90;;;;;;5051111;28;20195;-73
2023/08/20 10:01:31;;;;;;;7.45;1.40;;;23.00;99.90;;;;;;5052299;28;20180;-74
2023/08/20 10:03:57;;;;;;;6.53;1.38;;;22.90;53.60;;;;;;5052233;28;20169;-74
2023/08/20 10:06:23;;;;;;;8.93;1.35;;;23.10;1.00;;;;;;5052168;28;20173;-75
2023/08/20 10:08:51;;;;;;;5.53;1.02;;;23.90;1.00;;;;;;5052225;28;20691;-74
2023/08/20 10:11:17;;;;;;;10.30;1.65;;;23.60;1.00;;;;;;5051969;28;20707;-73
2023/08/20 10:13:43;;;;;;;3.97;0.82;;;23.90;99.90;;;;;;5051921;28;20177;-73
2023/08/20 10:16:11;;;;;;;6.20;1.17;;;23.80;1.00;;;;;;5052082;28;20615;-73
2023/08/20 10:18:37;;;;;;;7.90;1.42;;;24.20;31.20;;;;;;5051873;28;20213;-74
2023/08/20 10:21:04;;;;;;;5.45;1.45;;;24.60;1.00;;;;;;5051768;28;20248;-74
2023/08/20 10:23:32;;;;;;;5.10;1.38;;;24.70;1.00;;;;;;5051582;28;20208;-74
2023/08/20 10:26:08;;;;;;;5.35;1.13;;;24.50;1.00;;;;;;5050385;28;20244;-74
2023/08/20 10:28:34;;;;;;;7.78;1.15;;;25.10;99.90;;;;;;5051731;28;20180;-74
2023/08/20 10:31:10;;;;;;;5.68;1.15;;;25.10;99.90;;;;;;5051704;28;20205;-74
2023/08/20 10:33:50;;;;;;;7.13;1.08;;;25.10;1.00;;;;;;5051707;28;20241;-74
2023/08/20 10:36:18;;;;;;;6.88;0.90;;;25.70;1.00;;;;;;5051731;28;20176;-74
2023/08/20 10:38:47;;;;;;;7.20;1.08;;;25.90;99.90;;;;;;5051685;28;20200;-74
2023/08/20 10:41:14;;;;;;;5.95;1.40;;;27.30;1.00;;;;;;5051753;28;20303;-76
2023/08/20 10:43:46;;;;;;;4.78;1.17;;;25.40;1.00;;;;;;5051592;28;20310;-74
2023/08/20 10:46:20;;;;;;;4.55;1.10;;;25.40;1.00;;;;;;5050144;28;20293;-74
2023/08/20 10:48:54;;;;;;;8.00;1.40;;;25.70;1.00;;;;;;5051602;28;20652;-75
2023/08/20 10:51:40;;;;;;;4.97;1.13;;;25.50;99.90;;;;;;5051509;28;20183;-75
2023/08/20 10:54:09;;;;;;;7.78;1.15;;;26.40;99.90;;;;;;5050239;28;20666;-75
2023/08/20 10:56:40;;;;;;;4.88;0.90;;;26.90;1.00;;;;;;5050986;28;20196;-75
2023/08/20 10:59:29;;;;;;;6.10;1.17;;;25.80;1.00;;;;;;5051331;28;20169;-75
2023/08/20 11:01:56;;;;;;;4.50;1.38;;;25.90;1.00;;;;;;5051759;28;20264;-75
2023/08/20 11:04:28;;;;;;;8.20;1.65;;;25.10;1.00;;;;;;5050003;28;20635;-75
2023/08/20 11:06:55;;;;;;;8.85;1.58;;;25.30;1.00;;;;;;5049985;28;20264;-75
2023/08/20 11:09:28;;;;;;;4.50;1.25;;;25.30;1.00;;;;;;5051126;28;20224;-75
2023/08/20 11:11:55;;;;;;;5.97;1.10;;;25.90;1.00;;;;;;5051079;28;20181;-75
2023/08/20 11:14:21;;;;;;;5.25;1.20;;;27.50;99.90;;;;;;5050250;28;20628;-75
2023/08/20 11:16:48;;;;;;;3.97;0.90;;;27.40;1.00;;;;;;5049286;28;20239;-75
2023/08/20 11:19:18;;;;;;;5.22;0.93;;;26.40;1.00;;;;;;5051156;28;20172;-74
2023/08/20 11:21:44;;;;;;;5.47;0.90;;;25.60;1.00;;;;;;5051065;28;20181;-74
2023/08/20 11:24:11;;;;;;;6.93;1.10;;;25.70;99.90;;;;;;5051229;28;20702;-74
2023/08/20 11:26:40;;;;;;;4.93;1.00;;;26.50;1.00;;;;;;5051130;28;20263;-75
2023/08/20 11:29:07;;;;;;;4.47;1.00;;;27.40;1.00;;;;;;5050979;28;20169;-74
2023/08/20 11:31:33;;;;;;;5.10;1.17;;;26.30;1.00;;;;;;5049759;28;20535;-74
2023/08/20 11:33:58;;;;;;;6.07;1.13;;;25.60;1.00;;;;;;5049958;28;20226;-74
2023/08/20 11:36:24;;;;;;;7.35;1.23;;;25.50;1.00;;;;;;5049490;28;20178;-74
2023/08/20 11:38:54;;;;;;;2.17;0.88;;;25.30;1.00;;;;;;5045603;28;20173;-74
2023/08/20 11:41:23;;;;;;;3.83;1.10;;;26.90;1.00;;;;;;5031210;28;20174;-75
2023/08/20 11:43:50;;;;;;;4.75;0.85;;;25.90;1.00;;;;;;5050320;28;20231;-74
2023/08/20 11:46:19;;;;;;;5.28;1.08;;;25.90;1.00;;;;;;5050658;28;20263;-74
2023/08/20 11:49:05;;;;;;;3.38;0.90;;;25.70;1.00;;;;;;5036330;28;20236;-75
2023/08/20 11:51:47;;;;;;;4.18;0.90;;;25.20;1.00;;;;;;5035284;28;20178;-74
2023/08/20 11:54:15;;;;;;;4.68;1.02;;;24.10;1.00;;;;;;5032667;28;20174;-75
2023/08/20 11:56:51;;;;;;;4.38;1.05;;;23.60;1.00;;;;;;5050687;28;20202;-75
2023/08/20 11:59:19;;;;;;;7.53;1.10;;;23.50;1.00;;;;;;5029276;28;20193;-74
2023/08/20 12:02:00;;;;;;;11.30;1.17;;;23.20;1.00;;;;;;5031112;28;20202;-73
2023/08/20 12:04:27;;;;;;;3.92;0.80;;;22.80;1.00;;;;;;5029474;28;20209;-74
2023/08/20 12:07:08;;;;;;;7.03;1.10;;;22.40;1.00;;;;;;5032068;28;20174;-74
2023/08/20 12:09:34;;;;;;;2.92;0.80;;;22.00;1.00;;;;;;5034972;28;20178;-75
2023/08/20 12:12:00;;;;;;;1.25;0.68;;;21.90;1.00;;;;;;5035544;28;20174;-75
2023/08/20 12:14:26;;;;;;;7.03;1.20;;;21.70;1.00;;;;;;5040540;28;20723;-75
2023/08/20 12:16:53;;;;;;;5.00;0.70;;;21.70;1.00;;;;;;5035554;28;20202;-75
2023/08/20 12:19:19;;;;;;;9.10;1.15;;;21.50;1.00;;;;;;5034521;28;20202;-75
2023/08/20 12:21:45;;;;;;;10.32;1.80;;;21.40;99.90;;;;;;5034710;28;20208;-76
2023/08/20 12:24:11;;;;;;;4.18;1.23;;;21.20;1.00;;;;;;5035770;28;20166;-78
2023/08/20 12:26:38;;;;;;;3.63;1.15;;;21.30;1.00;;;;;;5041053;28;20228;-75
2023/08/20 12:29:03;;;;;;;3.42;1.30;;;21.30;1.00;;;;;;5054240;28;20165;-76
2023/08/20 12:31:29;;;;;;;3.28;0.90;;;20.70;5.80;;;;;;5048011;28;20244;-76
2023/08/20 12:33:55;;;;;;;5.35;1.13;;;20.40;99.90;;;;;;5040489;28;20181;-76
2023/08/20 12:36:20;;;;;;;3.85;0.70;;;20.20;99.90;;;;;;5034484;28;20185;-76
2023/08/20 12:38:46;;;;;;;2.10;0.80;;;20.00;99.90;;;;;;5040481;28;20186;-75
2023/08/20 12:41:12;;;;;;;4.25;0.90;;;19.70;99.90;;;;;;5034117;28;20520;-75
2023/08/20 12:43:37;;;;;;;2.58;0.70;;;19.70;99.90;;;;;;5035292;28;20661;-75
2023/08/20 12:46:03;;;;;;;2.03;0.60;;;19.80;99.90;;;;;;5033811;28;20171;-74
2023/08/20 12:48:29;;;;;;;3.88;0.70;;;19.60;99.90;;;;;;5048013;28;20583;-75